createdAt,value
2023-03-05T00:00:12.900Z,2.63
2023-03-05T00:02:43.547Z,6.63
2023-03-05T00:05:11.081Z,2.28
2023-03-05T00:07:38.228Z,1.27
2023-03-05T00:10:06.346Z,2.35
2023-03-05T00:12:33.587Z,0.60
2023-03-05T00:15:00.793Z,1.20
2023-03-05T00:17:28.045Z,4.38
2023-03-05T00:19:56.971Z,0.70
2023-03-05T00:22:24.148Z,4.43
2023-03-05T00:24:52.409Z,4.95
2023-03-05T00:27:21.676Z,0.43
2023-03-05T00:29:48.932Z,1.38
2023-03-05T00:32:16.141Z,12.15
2023-03-05T00:34:43.530Z,3.30
2023-03-05T00:37:10.782Z,9.50
2023-03-05T00:39:38.145Z,1.20
2023-03-05T00:42:05.576Z,0.90
2023-03-05T00:44:32.746Z,0.60
2023-03-05T00:47:00.144Z,6.82
2023-03-05T00:49:27.370Z,1.77
2023-03-05T00:51:55.143Z,3.80
2023-03-05T00:54:22.747Z,1.38
2023-03-05T00:56:51.967Z,9.82
2023-03-05T00:59:19.212Z,0.52
2023-03-05T01:01:46.408Z,3.72
2023-03-05T01:04:13.708Z,1.15
2023-03-05T01:06:44.586Z,6.50
2023-03-05T01:09:13.145Z,3.67
2023-03-05T01:11:40.697Z,2.00
2023-03-05T01:14:08.011Z,5.70
2023-03-05T01:16:35.190Z,1.10
2023-03-05T01:19:02.615Z,1.05
2023-03-05T01:21:29.908Z,7.22
2023-03-05T01:23:57.165Z,1.35
2023-03-05T01:26:24.430Z,4.63
2023-03-05T01:28:51.818Z,0.90
2023-03-05T01:31:20.334Z,0.85
2023-03-05T01:33:48.135Z,5.97
2023-03-05T01:36:16.882Z,3.05
2023-03-05T01:38:45.145Z,2.78
2023-03-05T01:41:13.316Z,4.75
2023-03-05T01:43:42.343Z,5.22
2023-03-05T01:46:29.534Z,5.05
2023-03-05T01:48:57.871Z,2.65
2023-03-05T01:51:26.278Z,4.00
2023-03-05T01:54:01.096Z,2.67
2023-03-05T01:56:30.589Z,6.63
2023-03-05T01:59:03.643Z,9.32
2023-03-05T02:01:32.473Z,1.40
2023-03-05T02:03:59.985Z,2.28
2023-03-05T02:06:27.321Z,8.52
2023-03-05T02:08:55.423Z,8.73
2023-03-05T02:11:24.009Z,9.13
2023-03-05T02:13:52.162Z,6.18
2023-03-05T02:16:19.581Z,2.33
2023-03-05T02:18:46.960Z,7.30
2023-03-05T02:21:14.258Z,6.55
2023-03-05T02:23:43.492Z,4.30
2023-03-05T02:26:11.827Z,4.80
2023-03-05T02:28:40.689Z,5.78
2023-03-05T02:31:14.578Z,2.95
2023-03-05T02:36:10.509Z,3.50
2023-03-05T02:38:37.794Z,4.38
2023-03-05T02:41:05.221Z,5.22
2023-03-05T02:43:32.832Z,7.82
2023-03-05T02:46:00.197Z,3.20
2023-03-05T02:48:27.574Z,4.60
2023-03-05T02:50:55.756Z,1.90
2023-03-05T02:53:23.698Z,5.53
2023-03-05T02:55:51.707Z,4.38
2023-03-05T02:58:19.030Z,3.63
2023-03-05T03:00:49.048Z,3.63
2023-03-05T03:03:16.443Z,4.70
2023-03-05T03:05:43.761Z,4.18
2023-03-05T03:08:11.344Z,3.15
2023-03-05T03:10:38.980Z,5.20
2023-03-05T03:13:06.211Z,5.47
2023-03-05T03:15:33.409Z,13.50
2023-03-05T03:18:00.563Z,2.28
2023-03-05T03:20:27.854Z,6.40
2023-03-05T03:22:55.117Z,4.88
2023-03-05T03:25:23.124Z,2.53
2023-03-05T03:27:52.470Z,5.30
2023-03-05T03:30:19.686Z,6.88
2023-03-05T03:32:48.294Z,5.55
2023-03-05T03:35:15.522Z,7.63
2023-03-05T03:37:42.780Z,3.40
2023-03-05T03:40:10.379Z,6.30
2023-03-05T03:42:37.611Z,4.88
2023-03-05T03:45:05.314Z,3.40
2023-03-05T03:47:32.587Z,4.15
2023-03-05T03:49:59.952Z,4.38
2023-03-05T03:52:28.200Z,7.47
2023-03-05T03:55:01.236Z,4.43
2023-03-05T03:57:29.324Z,4.78
2023-03-05T03:59:56.705Z,6.45
2023-03-05T04:02:24.019Z,7.15
2023-03-05T04:04:51.372Z,7.13
2023-03-05T04:07:18.706Z,3.83
2023-03-05T04:09:45.922Z,5.95
2023-03-05T04:12:17.869Z,5.70
2023-03-05T04:14:49.253Z,4.68
2023-03-05T04:17:16.750Z,5.82
2023-03-05T04:19:44.184Z,8.15
2023-03-05T04:22:15.053Z,4.10
2023-03-05T04:24:42.602Z,7.80
2023-03-05T04:27:10.033Z,7.45
2023-03-05T04:29:37.350Z,5.55
2023-03-05T04:32:04.817Z,5.43
2023-03-05T04:34:33.414Z,6.15
2023-03-05T04:37:00.565Z,8.38
2023-03-05T04:39:27.942Z,9.55
2023-03-05T04:41:55.186Z,7.43
2023-03-05T04:44:23.216Z,5.90
2023-03-05T04:46:50.622Z,7.03
2023-03-05T04:49:17.974Z,6.40
2023-03-05T04:51:45.230Z,6.82
2023-03-05T04:54:12.425Z,9.65
2023-03-05T04:56:39.621Z,5.45
2023-03-05T04:59:06.808Z,5.97
2023-03-05T05:01:35.325Z,13.43
2023-03-05T05:04:02.519Z,9.93
2023-03-05T05:06:29.810Z,4.50
2023-03-05T05:08:57.139Z,14.05
2023-03-05T05:11:24.328Z,6.28
2023-03-05T05:13:51.575Z,5.82
2023-03-05T05:16:18.856Z,6.43
2023-03-05T05:18:46.095Z,8.48
2023-03-05T05:21:15.078Z,5.05
2023-03-05T05:23:42.327Z,4.53
2023-03-05T05:26:09.755Z,11.68
2023-03-05T05:28:38.290Z,3.90
2023-03-05T05:31:09.322Z,10.18
2023-03-05T05:33:36.817Z,16.15
2023-03-05T05:36:05.548Z,4.07
2023-03-05T05:38:32.798Z,2.42
2023-03-05T05:41:07.154Z,2.90
2023-03-05T05:43:34.602Z,6.40
2023-03-05T05:46:05.859Z,9.00
2023-03-05T05:48:34.169Z,3.08
2023-03-05T05:51:05.396Z,5.35
2023-03-05T05:53:32.692Z,4.85
2023-03-05T05:55:59.984Z,3.25
2023-03-05T05:58:27.277Z,1.55
2023-03-05T06:00:54.481Z,2.00
2023-03-05T06:03:21.756Z,1.40
2023-03-05T06:05:49.122Z,3.33
2023-03-05T06:08:16.335Z,3.00
2023-03-05T06:10:43.486Z,4.38
2023-03-05T06:13:10.758Z,3.40
2023-03-05T06:15:37.936Z,5.47
2023-03-05T06:18:05.244Z,3.33
2023-03-05T06:20:32.408Z,7.88
2023-03-05T06:22:59.710Z,7.82
2023-03-05T06:25:26.959Z,6.93
2023-03-05T06:27:54.158Z,6.53
2023-03-05T06:30:21.374Z,2.30
2023-03-05T06:32:48.565Z,6.15
2023-03-05T06:35:15.808Z,2.55
2023-03-05T06:37:43.043Z,12.15
2023-03-05T06:40:11.049Z,3.35
2023-03-05T06:42:38.229Z,4.10
2023-03-05T06:45:05.788Z,2.30
2023-03-05T06:47:33.005Z,4.07
2023-03-05T06:50:00.221Z,2.58
2023-03-05T06:52:27.503Z,7.88
2023-03-05T06:54:55.793Z,3.28
2023-03-05T06:57:23.779Z,4.57
2023-03-05T06:59:51.097Z,8.32
2023-03-05T07:02:19.172Z,5.28
2023-03-05T07:04:46.427Z,5.00
2023-03-05T07:07:13.696Z,7.22
2023-03-05T07:09:43.579Z,4.32
2023-03-05T07:12:11.868Z,8.52
2023-03-05T07:14:39.672Z,3.38
2023-03-05T07:17:07.295Z,4.55
2023-03-05T07:19:34.871Z,2.95
2023-03-05T07:22:02.164Z,2.90
2023-03-05T07:24:29.892Z,3.67
2023-03-05T07:26:57.862Z,4.28
2023-03-05T07:29:25.522Z,5.53
2023-03-05T07:31:52.995Z,3.22
2023-03-05T07:34:20.509Z,4.78
2023-03-05T07:36:50.759Z,4.00
2023-03-05T07:39:19.100Z,2.90
2023-03-05T07:41:51.383Z,4.05
2023-03-05T07:44:26.719Z,3.90
2023-03-05T07:46:53.942Z,4.45
2023-03-05T07:49:21.118Z,3.70
2023-03-05T07:51:48.217Z,6.50
2023-03-05T07:54:15.954Z,2.75
2023-03-05T07:56:43.129Z,5.72
2023-03-05T07:59:12.832Z,4.03
2023-03-05T08:01:39.965Z,3.55
2023-03-05T08:04:08.447Z,10.27
2023-03-05T08:06:35.756Z,3.53
2023-03-05T08:09:06.147Z,3.28
2023-03-05T08:11:33.510Z,4.13
2023-03-05T08:14:00.924Z,2.15
2023-03-05T08:16:28.511Z,2.97
2023-03-05T08:18:57.343Z,1.88
2023-03-05T08:21:33.667Z,4.90
2023-03-05T08:24:03.019Z,5.32
2023-03-05T08:26:30.891Z,3.30
2023-03-05T08:28:58.420Z,1.65
2023-03-05T08:31:26.610Z,1.92
2023-03-05T08:33:54.708Z,1.70
2023-03-05T08:36:22.350Z,1.13
2023-03-05T08:38:50.474Z,1.30
2023-03-05T08:41:18.706Z,2.78
2023-03-05T08:43:46.054Z,1.10
2023-03-05T08:46:13.975Z,1.55
2023-03-05T08:48:41.493Z,2.03
2023-03-05T08:51:13.331Z,0.90
2023-03-05T08:53:41.104Z,0.93
2023-03-05T08:56:08.576Z,1.15
2023-03-05T08:58:35.775Z,3.33
2023-03-05T09:01:03.216Z,7.55
2023-03-05T09:03:30.448Z,3.22
2023-03-05T09:06:02.004Z,3.55
2023-03-05T09:08:30.369Z,1.58
2023-03-05T09:10:57.786Z,1.33
2023-03-05T09:13:25.102Z,3.25
2023-03-05T09:15:59.212Z,3.28
2023-03-05T09:18:27.289Z,2.13
2023-03-05T09:20:54.919Z,0.77
2023-03-05T09:23:22.446Z,1.38
2023-03-05T09:25:52.000Z,1.05
2023-03-05T09:28:19.253Z,4.00
2023-03-05T09:30:46.398Z,0.77
2023-03-05T09:33:13.871Z,1.10
2023-03-05T09:35:41.361Z,1.73
2023-03-05T09:38:08.672Z,0.75
2023-03-05T09:40:44.512Z,1.23
2023-03-05T09:43:25.125Z,0.70
2023-03-05T09:45:58.658Z,0.95
2023-03-05T09:48:43.625Z,0.95
2023-03-05T09:51:14.693Z,2.45
2023-03-05T09:54:02.841Z,6.07
2023-03-05T09:56:33.169Z,2.35
2023-03-05T09:59:04.118Z,1.52
2023-03-05T10:01:38.705Z,1.45
2023-03-05T10:04:12.378Z,1.48
2023-03-05T10:06:45.563Z,1.45
2023-03-05T10:09:12.883Z,3.35
2023-03-05T10:11:43.229Z,1.15
2023-03-05T10:14:21.043Z,1.27
2023-03-05T10:16:53.924Z,4.40
2023-03-05T10:19:36.407Z,2.28
2023-03-05T10:22:20.606Z,0.80
2023-03-05T10:24:47.865Z,3.53
2023-03-05T10:27:18.051Z,0.77
2023-03-05T10:30:03.982Z,0.93
2023-03-05T10:32:44.540Z,0.60
2023-03-05T10:35:11.856Z,0.80
2023-03-05T10:37:58.184Z,1.13
2023-03-05T10:40:39.759Z,1.00
2023-03-05T10:43:18.960Z,1.90
2023-03-05T10:45:50.530Z,2.25
2023-03-05T10:48:29.432Z,2.35
2023-03-05T10:51:15.985Z,2.80
2023-03-05T10:53:43.232Z,0.43
2023-03-05T10:56:12.042Z,3.97
2023-03-05T10:58:39.457Z,4.72
2023-03-05T11:01:21.954Z,2.05
2023-03-05T11:03:55.290Z,1.10
2023-03-05T11:06:30.370Z,0.75
2023-03-05T11:09:15.358Z,1.10
2023-03-05T11:11:42.624Z,1.00
2023-03-05T11:14:29.831Z,2.80
2023-03-05T11:16:57.118Z,5.28
2023-03-05T11:19:33.016Z,3.67
2023-03-05T11:22:14.189Z,0.30
2023-03-05T11:24:41.841Z,2.22
2023-03-05T11:27:44.920Z,1.45
2023-03-05T11:30:27.043Z,0.85
2023-03-05T11:33:10.463Z,1.75
2023-03-05T11:35:40.104Z,7.05
2023-03-05T11:38:08.236Z,2.97
2023-03-05T11:40:35.932Z,0.93
2023-03-05T11:43:04.512Z,3.72
2023-03-05T11:45:32.917Z,0.50
2023-03-05T11:48:13.113Z,1.20
2023-03-05T11:50:42.029Z,0.95
2023-03-05T11:53:13.847Z,0.88
2023-03-05T11:55:43.258Z,1.17
2023-03-05T11:58:29.432Z,2.38
2023-03-05T12:00:57.037Z,1.02
2023-03-05T12:03:32.576Z,1.40
2023-03-05T12:06:18.344Z,0.95
2023-03-05T12:08:48.055Z,0.82
2023-03-05T12:11:28.483Z,0.77
2023-03-05T12:13:58.325Z,2.38
2023-03-05T12:16:40.163Z,0.50
2023-03-05T12:19:28.314Z,1.05
2023-03-05T12:21:55.513Z,2.72
2023-03-05T12:24:27.913Z,1.17
2023-03-05T12:27:04.774Z,3.83
2023-03-05T12:29:40.901Z,0.73
2023-03-05T12:32:25.244Z,0.50
2023-03-05T12:34:58.493Z,0.88
2023-03-05T12:37:25.747Z,1.45
2023-03-05T12:40:00.943Z,3.90
2023-03-05T12:42:31.371Z,2.30
2023-03-05T12:45:15.840Z,1.25
2023-03-05T12:47:47.241Z,1.70
2023-03-05T12:50:29.777Z,0.63
2023-03-05T12:52:56.937Z,3.20
2023-03-05T12:55:27.678Z,2.53
2023-03-05T12:57:59.166Z,0.40
2023-03-05T13:00:28.497Z,0.80
2023-03-05T13:02:58.706Z,0.80
2023-03-05T13:05:31.981Z,2.10
2023-03-05T13:08:17.876Z,1.10
2023-03-05T13:10:51.028Z,0.90
2023-03-05T13:13:20.586Z,0.55
2023-03-05T13:15:49.396Z,3.08
2023-03-05T13:18:20.328Z,3.92
2023-03-05T13:20:52.068Z,0.55
2023-03-05T13:23:20.550Z,0.55
2023-03-05T13:25:58.559Z,0.90
2023-03-05T13:28:25.990Z,0.30
2023-03-05T13:30:55.316Z,0.20
2023-03-05T13:33:27.105Z,0.52
2023-03-05T13:35:54.470Z,0.30
2023-03-05T13:38:30.852Z,1.88
2023-03-05T13:41:05.942Z,0.40
2023-03-05T13:43:33.298Z,0.32
2023-03-05T13:46:00.697Z,0.20
2023-03-05T13:48:28.469Z,0.30
2023-03-05T13:50:58.741Z,0.75
2023-03-05T13:53:29.867Z,0.63
2023-03-05T13:55:58.621Z,0.40
2023-03-05T13:58:47.264Z,0.98
2023-03-05T14:01:17.363Z,0.70
2023-03-05T14:03:46.073Z,1.63
2023-03-05T14:06:16.762Z,1.88
2023-03-05T14:08:44.161Z,3.83
2023-03-05T14:11:16.434Z,0.40
2023-03-05T14:13:44.583Z,0.60
2023-03-05T14:16:14.026Z,3.22
2023-03-05T14:18:53.857Z,3.88
2023-03-05T14:21:21.523Z,2.63
2023-03-05T14:23:51.552Z,1.30
2023-03-05T14:26:32.343Z,1.67
2023-03-05T14:29:03.964Z,2.85
2023-03-05T14:31:32.541Z,1.35
2023-03-05T14:34:04.331Z,1.67
2023-03-05T14:36:32.199Z,0.93
2023-03-05T14:39:00.623Z,1.30
2023-03-05T14:41:41.247Z,4.82
2023-03-05T14:44:15.749Z,0.63
2023-03-05T14:46:43.261Z,3.28
2023-03-05T14:49:10.622Z,1.73
2023-03-05T14:51:39.785Z,11.90
2023-03-05T14:54:07.242Z,0.93
2023-03-05T14:56:34.536Z,0.80
2023-03-05T14:59:01.810Z,1.88
2023-03-05T15:01:29.061Z,0.73
2023-03-05T15:03:56.303Z,1.80
2023-03-05T15:06:33.999Z,5.10
2023-03-05T15:09:01.716Z,1.10
2023-03-05T15:11:28.964Z,1.00
2023-03-05T15:13:56.360Z,2.63
2023-03-05T15:16:23.755Z,2.28
2023-03-05T15:18:51.051Z,0.90
2023-03-05T15:21:18.326Z,0.90
2023-03-05T15:23:45.510Z,1.90
2023-03-05T15:26:14.061Z,0.95
2023-03-05T15:28:41.438Z,0.85
2023-03-05T15:31:08.903Z,1.75
2023-03-05T15:33:36.278Z,1.08
2023-03-05T15:36:03.508Z,4.72
2023-03-05T15:38:30.703Z,0.55
2023-03-05T15:41:00.577Z,2.53
2023-03-05T15:43:30.444Z,0.80
2023-03-05T15:45:57.788Z,2.38
2023-03-05T15:48:25.067Z,6.38
2023-03-05T15:50:52.305Z,6.18
2023-03-05T15:53:21.470Z,2.83
2023-03-05T15:55:48.682Z,2.20
2023-03-05T15:58:16.988Z,1.80
2023-03-05T16:00:44.274Z,1.65
2023-03-05T16:03:11.553Z,8.85
2023-03-05T16:05:38.976Z,2.53
2023-03-05T16:08:06.562Z,12.32
2023-03-05T16:10:35.577Z,1.83
2023-03-05T16:13:04.963Z,3.85
2023-03-05T16:15:33.238Z,5.00
2023-03-05T16:18:03.150Z,4.05
2023-03-05T16:20:30.556Z,6.95
2023-03-05T16:22:57.788Z,2.17
2023-03-05T16:25:25.099Z,14.25
2023-03-05T16:27:52.326Z,3.63
2023-03-05T16:30:20.046Z,9.57
2023-03-05T16:32:47.304Z,3.78
2023-03-05T16:35:14.721Z,3.55
2023-03-05T16:37:42.266Z,4.15
2023-03-05T16:40:10.766Z,2.85
2023-03-05T16:42:37.973Z,2.58
2023-03-05T16:45:05.761Z,1.63
2023-03-05T16:47:33.189Z,2.13
2023-03-05T16:50:00.876Z,7.60
2023-03-05T16:52:28.474Z,6.95
2023-03-05T16:54:55.793Z,5.75
2023-03-05T16:57:26.210Z,2.55
2023-03-05T16:59:54.197Z,4.25
2023-03-05T17:02:21.432Z,2.30
2023-03-05T17:04:50.290Z,1.73
2023-03-05T17:07:17.867Z,2.25
2023-03-05T17:09:45.773Z,2.10
2023-03-05T17:12:13.052Z,2.53
2023-03-05T17:14:40.286Z,3.15
2023-03-05T17:17:07.695Z,7.20
2023-03-05T17:19:34.923Z,5.47
2023-03-05T17:22:02.085Z,7.97
2023-03-05T17:24:30.046Z,2.80
2023-03-05T17:26:57.259Z,2.58
2023-03-05T17:29:24.731Z,2.22
2023-03-05T17:31:55.346Z,4.05
2023-03-05T17:34:33.373Z,2.38
2023-03-05T17:37:01.346Z,2.92
2023-03-05T17:39:28.607Z,2.67
2023-03-05T17:41:55.852Z,3.03
2023-03-05T17:44:23.072Z,3.90
2023-03-05T17:46:50.331Z,3.00
2023-03-05T17:49:17.447Z,3.70
2023-03-05T17:51:44.730Z,3.60
2023-03-05T17:54:11.910Z,2.28
2023-03-05T17:56:39.141Z,7.20
2023-03-05T17:59:06.371Z,10.90
2023-03-05T18:01:34.668Z,6.45
2023-03-05T18:04:02.201Z,4.10
2023-03-05T18:06:29.543Z,1.75
2023-03-05T18:08:56.717Z,5.53
2023-03-05T18:11:24.594Z,2.20
2023-03-05T18:13:51.933Z,4.40
2023-03-05T18:16:19.263Z,4.38
2023-03-05T18:18:46.463Z,5.50
2023-03-05T18:21:14.261Z,3.10
2023-03-05T18:23:41.513Z,4.40
2023-03-05T18:26:08.695Z,4.68
2023-03-05T18:28:36.010Z,3.90
2023-03-05T18:31:03.321Z,5.93
2023-03-05T18:33:30.561Z,12.85
2023-03-05T18:35:58.142Z,5.80
2023-03-05T18:38:27.094Z,3.42
2023-03-05T18:40:54.891Z,9.70
2023-03-05T18:43:22.415Z,3.53
2023-03-05T18:45:50.535Z,3.97
2023-03-05T18:48:17.870Z,4.60
2023-03-05T18:50:45.446Z,5.85
2023-03-05T18:53:13.674Z,5.55
2023-03-05T18:55:44.823Z,4.72
2023-03-05T18:58:15.600Z,10.13
2023-03-05T19:00:44.780Z,8.15
2023-03-05T19:03:12.419Z,5.13
2023-03-05T19:05:39.864Z,5.55
2023-03-05T19:08:07.762Z,10.05
2023-03-05T19:10:35.017Z,4.00
2023-03-05T19:13:34.686Z,8.07
2023-03-05T19:16:06.787Z,7.72
2023-03-05T19:18:38.901Z,5.20
2023-03-05T19:21:08.129Z,6.05
2023-03-05T19:23:35.332Z,5.00
2023-03-05T19:26:03.005Z,5.47
2023-03-05T19:28:30.356Z,8.18
2023-03-05T19:30:57.597Z,7.60
2023-03-05T19:33:25.172Z,9.20
2023-03-05T19:35:52.616Z,7.85
2023-03-05T19:38:19.871Z,7.50
2023-03-05T19:40:48.532Z,6.85
2023-03-05T19:43:17.512Z,6.95
2023-03-05T19:45:44.840Z,9.55
2023-03-05T19:48:13.106Z,8.05
2023-03-05T19:50:40.912Z,12.40
2023-03-05T19:53:08.132Z,7.35
2023-03-05T19:55:39.439Z,7.93
2023-03-05T19:58:06.655Z,5.15
2023-03-05T20:00:33.964Z,13.57
2023-03-05T20:03:01.179Z,8.23
2023-03-05T20:05:31.840Z,5.28
2023-03-05T20:07:59.369Z,9.13
2023-03-05T20:10:26.787Z,5.53
2023-03-05T20:12:54.241Z,7.22
2023-03-05T20:15:23.320Z,8.27
2023-03-05T20:17:52.823Z,6.05
2023-03-05T20:20:20.324Z,11.68
2023-03-05T20:22:47.861Z,7.30
2023-03-05T20:25:16.872Z,8.48
2023-03-05T20:27:44.627Z,6.55
2023-03-05T20:30:13.308Z,7.57
2023-03-05T20:32:40.911Z,7.65
2023-03-05T20:35:09.168Z,7.05
2023-03-05T20:37:40.205Z,6.20
2023-03-05T20:40:08.418Z,10.75
2023-03-05T20:42:35.682Z,8.13
2023-03-05T20:45:02.944Z,7.47
2023-03-05T20:47:40.546Z,6.63
2023-03-05T20:50:09.838Z,11.68
2023-03-05T20:52:37.723Z,5.20
2023-03-05T20:55:05.529Z,6.72
2023-03-05T20:57:32.778Z,8.65
2023-03-05T21:00:00.353Z,9.38
2023-03-05T21:02:28.170Z,7.60
2023-03-05T21:04:55.549Z,8.40
2023-03-05T21:07:23.044Z,9.38
2023-03-05T21:09:50.295Z,6.35
2023-03-05T21:12:17.541Z,8.13
2023-03-05T21:14:44.706Z,9.10
2023-03-05T21:17:11.929Z,9.50
2023-03-05T21:19:39.704Z,5.90
2023-03-05T21:22:06.998Z,9.05
2023-03-05T21:24:45.537Z,7.57
2023-03-05T21:27:12.881Z,13.75
2023-03-05T21:29:40.165Z,9.00
2023-03-05T21:32:07.466Z,11.35
2023-03-05T21:34:34.738Z,12.60
2023-03-05T21:37:02.087Z,11.15
2023-03-05T21:39:30.610Z,7.82
2023-03-05T21:41:57.908Z,9.50
2023-03-05T21:44:25.150Z,9.25
2023-03-05T21:46:52.428Z,7.28
2023-03-05T21:49:19.703Z,9.90
2023-03-05T21:52:03.278Z,13.93
2023-03-05T21:54:30.803Z,15.85
2023-03-05T21:56:58.050Z,7.68
2023-03-05T21:59:25.279Z,11.50
2023-03-05T22:01:52.708Z,15.27
2023-03-05T22:04:19.910Z,14.02
2023-03-05T22:06:47.246Z,9.73
2023-03-05T22:09:14.717Z,9.52
2023-03-05T22:11:45.164Z,11.80
2023-03-05T22:14:12.657Z,10.98
2023-03-05T22:16:39.852Z,9.15
2023-03-05T22:19:07.090Z,19.33
2023-03-05T22:21:34.452Z,9.32
2023-03-05T22:24:01.782Z,10.88
2023-03-05T22:26:36.765Z,10.05
2023-03-05T22:29:04.442Z,10.32
2023-03-05T22:31:32.894Z,12.70
2023-03-05T22:34:00.244Z,13.23
2023-03-05T22:36:27.376Z,14.52
2023-03-05T22:38:54.698Z,12.00
2023-03-05T22:41:22.596Z,9.75
2023-03-05T22:43:51.115Z,10.00
2023-03-05T22:46:19.815Z,13.18
2023-03-05T22:48:47.331Z,12.50
2023-03-05T22:51:15.464Z,15.18
2023-03-05T22:53:44.147Z,14.73
2023-03-05T22:56:15.734Z,9.13
2023-03-05T22:58:43.062Z,16.35
2023-03-05T23:01:17.789Z,11.00
2023-03-05T23:03:45.562Z,15.10
2023-03-05T23:06:12.899Z,9.18
2023-03-05T23:08:40.114Z,11.55
2023-03-05T23:11:08.730Z,11.77
2023-03-05T23:13:36.154Z,14.65
2023-03-05T23:16:03.464Z,10.30
2023-03-05T23:18:30.639Z,15.10
2023-03-05T23:20:57.916Z,15.23
2023-03-05T23:23:25.298Z,11.45
2023-03-05T23:25:53.535Z,15.45
2023-03-05T23:28:21.104Z,11.70
2023-03-05T23:30:48.353Z,12.10
2023-03-05T23:33:23.194Z,12.00
2023-03-05T23:35:51.675Z,12.32
2023-03-05T23:38:18.901Z,10.20
2023-03-05T23:40:47.973Z,13.55
2023-03-05T23:43:15.903Z,10.52
2023-03-05T23:45:44.182Z,8.57
2023-03-05T23:48:11.453Z,9.07
2023-03-05T23:50:40.342Z,6.63
2023-03-05T23:53:07.583Z,6.13
2023-03-05T23:55:36.722Z,9.23
2023-03-05T23:58:04.371Z,6.38
